Time;durP1;ratioP1;P1;durP2;ratioP2;P2;SDS_P1;SDS_P2;PMS_P1;PMS_P2;Temp;Humidity;BMP_temperature;BMP_pressure;BME280_temperature;BME280_humidity;BME280_pressure;Samples;Min_cycle;Max_cycle;Signal;HPM_P1;HPM_P2
2023/02/27 00:01:32;;;;;;;7.87;1.30;;;3.60;99.90;;;;;;4936163;28;38533;-78
2023/02/27 00:03:59;;;;;;;3.67;1.20;;;3.60;99.90;;;;;;4928474;28;38074;-78
2023/02/27 00:06:26;;;;;;;3.97;1.50;;;3.60;99.90;;;;;;4952612;28;38539;-79
2023/02/27 00:08:53;;;;;;;7.30;1.87;;;3.60;99.90;;;;;;4948493;28;38006;-78
2023/02/27 00:11:20;;;;;;;5.53;1.40;;;3.60;99.90;;;;;;4954055;28;37514;-77
2023/02/27 00:13:46;;;;;;;4.07;1.27;;;3.60;99.90;;;;;;4950835;28;38195;-78
2023/02/27 00:16:12;;;;;;;8.50;1.60;;;3.60;99.90;;;;;;4950455;28;38252;-78
2023/02/27 00:18:38;;;;;;;6.00;1.43;;;3.60;99.90;;;;;;4957558;28;38883;-78
2023/02/27 00:21:05;;;;;;;5.10;1.00;;;3.60;99.90;;;;;;4959297;28;36194;-77
2023/02/27 00:23:31;;;;;;;3.80;1.30;;;3.60;99.90;;;;;;4958158;28;40112;-77
2023/02/27 00:25:59;;;;;;;6.50;0.97;;;3.60;99.90;;;;;;4956570;28;39201;-78
2023/02/27 00:28:26;;;;;;;4.77;1.13;;;3.60;99.90;;;;;;4930886;28;37921;-78
2023/02/27 00:30:52;;;;;;;6.37;1.53;;;3.60;99.90;;;;;;4951207;28;39083;-77
2023/02/27 00:33:19;;;;;;;6.00;1.20;;;3.60;99.90;;;;;;4939882;28;37847;-77
2023/02/27 00:35:53;;;;;;;4.93;1.00;;;3.60;99.90;;;;;;4954475;28;39264;-77
2023/02/27 00:38:19;;;;;;;4.70;1.70;;;3.60;99.90;;;;;;4957817;28;37613;-77
2023/02/27 00:40:45;;;;;;;7.27;1.20;;;3.60;99.90;;;;;;4955661;28;37449;-78
2023/02/27 00:43:11;;;;;;;4.57;1.37;;;3.60;99.90;;;;;;4945766;28;37810;-77
2023/02/27 00:45:37;;;;;;;6.43;1.07;;;3.60;99.90;;;;;;4958115;28;38298;-77
2023/02/27 00:48:03;;;;;;;7.97;2.10;;;3.60;99.90;;;;;;4952038;28;37061;-77
2023/02/27 00:50:29;;;;;;;3.63;1.10;;;3.50;99.90;;;;;;4945592;28;36804;-78
2023/02/27 00:52:55;;;;;;;5.03;1.20;;;3.50;99.90;;;;;;4957753;28;38963;-78
2023/02/27 00:55:21;;;;;;;6.07;1.23;;;3.50;99.90;;;;;;4960786;28;39249;-77
2023/02/27 00:57:47;;;;;;;6.00;1.27;;;3.50;99.90;;;;;;4945265;28;37469;-78
2023/02/27 01:00:14;;;;;;;6.87;1.60;;;3.50;99.90;;;;;;4957402;28;37194;-78
2023/02/27 01:02:40;;;;;;;5.50;1.60;;;3.40;99.90;;;;;;4944744;28;39016;-78
2023/02/27 01:05:06;;;;;;;7.13;1.40;;;3.40;99.90;;;;;;4941458;28;37168;-77
2023/02/27 01:07:32;;;;;;;7.20;2.10;;;3.30;99.90;;;;;;4959106;28;37890;-78
2023/02/27 01:09:59;;;;;;;8.23;1.40;;;3.20;99.90;;;;;;4958542;28;37069;-78
2023/02/27 01:12:25;;;;;;;3.93;1.20;;;3.20;99.90;;;;;;4956513;28;39439;-78
2023/02/27 01:14:51;;;;;;;5.33;1.23;;;3.20;99.90;;;;;;4958780;28;38934;-78
2023/02/27 01:17:17;;;;;;;2.47;1.00;;;3.10;99.90;;;;;;4941378;28;37071;-78
2023/02/27 01:19:43;;;;;;;4.20;1.00;;;3.20;99.90;;;;;;4944462;28;37168;-78
2023/02/27 01:22:10;;;;;;;11.13;1.63;;;3.10;99.90;;;;;;4944589;28;38728;-78
2023/02/27 01:24:36;;;;;;;5.60;1.50;;;3.20;99.90;;;;;;4955404;28;39430;-78
2023/02/27 01:27:02;;;;;;;3.67;1.20;;;3.20;99.90;;;;;;4938586;28;36827;-77
2023/02/27 01:29:28;;;;;;;3.40;1.17;;;3.20;99.90;;;;;;4952345;28;37843;-78
2023/02/27 01:31:54;;;;;;;5.97;1.07;;;3.10;99.90;;;;;;4941921;28;37527;-78
2023/02/27 01:34:20;;;;;;;4.77;0.97;;;3.20;99.90;;;;;;4952125;28;38259;-78
2023/02/27 01:36:46;;;;;;;2.93;1.07;;;3.20;99.90;;;;;;4941552;28;36897;-78
2023/02/27 01:39:12;;;;;;;9.93;1.30;;;3.20;99.90;;;;;;4940804;28;35979;-78
2023/02/27 01:41:38;;;;;;;6.77;0.90;;;3.20;99.90;;;;;;4957112;28;38310;-77
2023/02/27 01:44:07;;;;;;;5.57;1.13;;;3.20;99.90;;;;;;4957403;28;39458;-79
2023/02/27 01:46:34;;;;;;;9.13;1.03;;;3.10;99.90;;;;;;4947364;28;36874;-79
2023/02/27 01:49:18;;;;;;;8.10;1.27;;;3.00;99.90;;;;;;4959108;28;38159;-79
2023/02/27 01:52:15;;;;;;;4.10;1.20;;;3.00;99.90;;;;;;4944482;28;46939;-79
2023/02/27 01:54:42;;;;;;;8.70;1.50;;;2.90;99.90;;;;;;4923957;28;46988;-79
2023/02/27 01:57:08;;;;;;;3.90;1.10;;;2.80;99.90;;;;;;4957892;28;38736;-79
2023/02/27 01:59:37;;;;;;;4.10;1.10;;;2.70;99.90;;;;;;4957087;28;37030;-79
2023/02/27 02:02:11;;;;;;;5.43;1.27;;;2.70;99.90;;;;;;5237919;23;38927;-79
2023/02/27 02:04:39;;;;;;;2.70;1.00;;;2.60;99.90;;;;;;4911656;28;38213;-79
2023/02/27 02:07:11;;;;;;;6.73;1.00;;;2.50;99.90;;;;;;4916304;29;38117;-79
2023/02/27 02:09:42;;;;;;;3.85;0.90;;;2.50;99.90;;;;;;4914596;29;37932;-79
2023/02/27 02:12:12;;;;;;;5.93;1.53;;;2.40;99.90;;;;;;4901140;29;38769;-79
2023/02/27 02:14:38;;;;;;;5.37;1.13;;;2.30;99.90;;;;;;4904985;29;38459;-79
2023/02/27 02:17:17;;;;;;;4.73;1.73;;;2.20;99.90;;;;;;4899327;29;36565;-80
2023/02/27 02:19:51;;;;;;;4.43;1.23;;;2.20;99.90;;;;;;4905277;29;35416;-79
2023/02/27 02:22:35;;;;;;;3.87;1.20;;;2.20;99.90;;;;;;4901571;29;35821;-79
2023/02/27 02:25:46;;;;;;;8.87;1.47;;;2.10;99.90;;;;;;4916944;29;38533;-79
2023/02/27 02:28:49;;;;;;;6.57;1.10;;;2.10;99.90;;;;;;4903548;29;48240;-79
2023/02/27 02:31:22;;;;;;;;;;;2.10;99.90;;;;;;4904697;29;37332;-79
2023/02/27 02:34:00;;;;;;;3.17;0.82;;;2.10;99.90;;;;;;4898039;29;39718;-79
2023/02/27 02:36:45;;;;;;;3.80;1.20;;;2.00;99.90;;;;;;4916644;29;40798;-79
2023/02/27 02:39:17;;;;;;;4.33;1.20;;;2.00;99.90;;;;;;4902211;29;37125;-79
2023/02/27 02:42:02;;;;;;;6.13;1.60;;;2.00;99.90;;;;;;4919201;29;38788;-79
2023/02/27 02:44:40;;;;;;;8.87;1.40;;;2.00;99.90;;;;;;4923669;29;46853;-79
2023/02/27 02:47:22;;;;;;;4.60;1.10;;;1.90;99.90;;;;;;4918858;29;39196;-79
2023/02/27 02:50:12;;;;;;;3.00;1.00;;;1.80;99.90;;;;;;4919206;29;38938;-79
2023/02/27 02:52:58;;;;;;;3.63;1.10;;;1.70;99.90;;;;;;4916605;29;49757;-80
2023/02/27 02:55:54;;;;;;;6.20;1.30;;;1.60;99.90;;;;;;4915358;29;38679;-79
2023/02/27 02:58:37;;;;;;;8.17;1.47;;;1.50;99.90;;;;;;4914329;29;39243;-79
2023/02/27 03:01:14;;;;;;;6.20;1.08;;;1.40;99.90;;;;;;4911757;29;38779;-79
2023/02/27 03:03:48;;;;;;;5.30;1.00;;;1.30;99.90;;;;;;4915855;29;38447;-79
2023/02/27 03:06:30;;;;;;;8.67;1.23;;;1.30;99.90;;;;;;4914212;29;39122;-79
2023/02/27 03:09:10;;;;;;;5.33;1.70;;;1.30;99.90;;;;;;4914129;29;39229;-79
2023/02/27 03:11:39;;;;;;;2.90;1.20;;;1.30;99.90;;;;;;4910651;29;48634;-79
2023/02/27 03:14:12;;;;;;;6.80;1.67;;;1.30;99.90;;;;;;4901669;29;35783;-79
2023/02/27 03:16:44;;;;;;;5.68;1.42;;;1.20;99.90;;;;;;4900424;29;38326;-79
2023/02/27 03:19:16;;;;;;;5.50;2.65;;;1.20;99.90;;;;;;4903578;29;37540;-79
2023/02/27 03:21:52;;;;;;;3.40;1.20;;;1.10;99.90;;;;;;4902803;29;37012;-79
2023/02/27 03:24:52;;;;;;;5.33;1.27;;;1.10;99.90;;;;;;4918337;29;37625;-79
2023/02/27 03:27:20;;;;;;;6.47;1.37;;;1.00;99.90;;;;;;4893578;29;38250;-79
2023/02/27 03:30:00;;;;;;;8.90;1.50;;;1.00;99.90;;;;;;4920254;29;39521;-79
2023/02/27 03:32:48;;;;;;;9.93;1.13;;;1.00;99.90;;;;;;4911919;29;38056;-79
2023/02/27 03:35:14;;;;;;;6.13;1.40;;;0.90;99.90;;;;;;4917107;29;37264;-79
2023/02/27 03:37:52;;;;;;;3.30;1.37;;;0.90;99.90;;;;;;4907687;29;38541;-79
2023/02/27 03:40:43;;;;;;;5.70;1.40;;;0.90;99.90;;;;;;4906436;29;38398;-79
2023/02/27 03:43:38;;;;;;;5.10;1.40;;;0.80;99.90;;;;;;4915441;29;36953;-79
2023/02/27 03:46:20;;;;;;;6.60;1.30;;;0.70;99.90;;;;;;4877425;29;36372;-79
2023/02/27 03:48:46;;;;;;;3.67;1.40;;;0.60;99.90;;;;;;4919710;29;38845;-79
2023/02/27 03:51:16;;;;;;;8.67;1.40;;;0.60;99.90;;;;;;4909285;29;38248;-79
2023/02/27 03:53:53;;;;;;;5.73;1.60;;;0.60;99.90;;;;;;4903326;29;37187;-79
2023/02/27 03:56:24;;;;;;;6.27;2.07;;;0.60;99.90;;;;;;4908722;29;37587;-79
2023/02/27 03:58:51;;;;;;;5.33;1.27;;;0.60;99.90;;;;;;4913338;29;39833;-79
2023/02/27 04:01:18;;;;;;;7.00;1.57;;;0.60;99.90;;;;;;4919673;29;38819;-79
2023/02/27 04:03:55;;;;;;;4.20;1.43;;;0.70;99.90;;;;;;4931116;28;38099;-79
2023/02/27 04:09:34;;;;;;;8.47;1.97;;;0.60;99.90;;;;;;4936975;28;39447;-79
2023/02/27 04:12:45;;;;;;;7.10;1.37;;;0.60;99.90;;;;;;4914109;28;38264;-79
2023/02/27 04:15:59;;;;;;;4.07;1.47;;;0.50;99.90;;;;;;4934590;29;46990;-79
2023/02/27 04:18:37;;;;;;;4.00;1.53;;;0.50;99.90;;;;;;4938460;28;37153;-79
2023/02/27 04:21:31;;;;;;;3.67;1.60;;;0.50;99.90;;;;;;4938942;28;39057;-79
2023/02/27 04:24:14;;;;;;;6.43;1.70;;;0.50;99.90;;;;;;4932972;28;37246;-79
2023/02/27 04:26:53;;;;;;;7.23;1.90;;;0.50;99.90;;;;;;4934131;28;47119;-79
2023/02/27 04:29:57;;;;;;;6.57;1.60;;;0.30;99.90;;;;;;4928457;28;36097;-79
2023/02/27 04:32:36;;;;;;;5.27;1.70;;;0.40;99.90;;;;;;4943158;28;38568;-79
2023/02/27 04:35:14;;;;;;;6.03;1.50;;;0.30;99.90;;;;;;4928257;28;38225;-79
2023/02/27 04:37:58;;;;;;;6.63;1.77;;;0.20;99.90;;;;;;4947814;28;46774;-79
2023/02/27 04:40:39;;;;;;;7.43;1.97;;;0.10;99.90;;;;;;4945490;28;36082;-79
2023/02/27 04:43:07;;;;;;;4.53;1.70;;;0.10;99.90;;;;;;4920183;29;38993;-78
2023/02/27 04:45:37;;;;;;;5.43;1.30;;;0.00;99.90;;;;;;4930210;28;38465;-79
2023/02/27 04:48:10;;;;;;;6.40;1.80;;;0.00;99.90;;;;;;4938625;28;37777;-78
2023/02/27 04:50:41;;;;;;;5.70;1.67;;;0.00;99.90;;;;;;4921678;28;36209;-79
2023/02/27 04:53:25;;;;;;;4.93;1.73;;;0.00;99.90;;;;;;4939547;28;37396;-79
2023/02/27 04:55:57;;;;;;;5.27;1.33;;;0.10;99.90;;;;;;4930606;28;37603;-79
2023/02/27 04:58:37;;;;;;;7.00;1.75;;;0.10;99.90;;;;;;4948567;28;38120;-79
2023/02/27 05:01:13;;;;;;;6.43;1.70;;;0.10;99.90;;;;;;4936470;28;37278;-79
2023/02/27 05:03:44;;;;;;;6.33;1.53;;;0.10;99.90;;;;;;4922449;28;37829;-79
2023/02/27 05:06:14;;;;;;;5.37;1.80;;;0.10;99.90;;;;;;4940543;28;39234;-79
2023/02/27 05:09:02;;;;;;;6.57;1.77;;;0.10;99.90;;;;;;4941419;28;38104;-79
2023/02/27 05:12:24;;;;;;;3.80;1.47;;;0.10;99.90;;;;;;4937861;28;50104;-80
2023/02/27 05:14:58;;;;;;;7.20;1.80;;;0.10;99.90;;;;;;4922518;28;48525;-79
2023/02/27 05:17:33;;;;;;;6.63;1.80;;;0.10;99.90;;;;;;4946587;28;38441;-79
2023/02/27 05:20:00;;;;;;;9.13;2.20;;;0.10;99.90;;;;;;4929505;28;38864;-79
2023/02/27 05:22:46;;;;;;;9.03;2.00;;;0.10;99.90;;;;;;4947906;28;36907;-79
2023/02/27 05:25:25;;;;;;;8.13;2.30;;;0.20;99.90;;;;;;4940970;28;39312;-79
2023/02/27 05:27:57;;;;;;;6.30;1.90;;;0.20;99.90;;;;;;4928183;28;37922;-79
2023/02/27 05:31:03;;;;;;;8.48;2.30;;;0.30;99.90;;;;;;4938851;28;38258;-78
2023/02/27 05:33:49;;;;;;;7.00;2.17;;;0.30;99.90;;;;;;4918151;28;47112;-79
2023/02/27 05:36:33;;;;;;;4.77;1.90;;;0.30;99.90;;;;;;4952052;28;39491;-79
2023/02/27 05:39:04;;;;;;;5.60;1.90;;;0.30;99.90;;;;;;4927937;28;39178;-79
2023/02/27 05:41:40;;;;;;;8.37;2.23;;;0.30;99.90;;;;;;4929095;29;47471;-79
2023/02/27 05:44:14;;;;;;;6.83;2.47;;;0.20;99.90;;;;;;4929898;28;37920;-79
2023/02/27 05:47:06;;;;;;;6.10;2.07;;;0.20;99.90;;;;;;4939592;28;39802;-79
2023/02/27 05:49:39;;;;;;;10.37;1.90;;;0.10;99.90;;;;;;4914711;29;47003;-79
2023/02/27 05:52:10;;;;;;;8.17;2.33;;;0.10;99.90;;;;;;4921903;28;36824;-79
2023/02/27 05:54:45;;;;;;;8.93;2.50;;;0.20;99.90;;;;;;4939614;28;37381;-79
2023/02/27 05:57:19;;;;;;;6.77;2.17;;;0.20;99.90;;;;;;4944527;28;39702;-79
2023/02/27 06:00:04;;;;;;;10.53;3.07;;;0.20;99.90;;;;;;4940051;28;39522;-79
2023/02/27 06:02:31;;;;;;;8.00;2.33;;;0.10;99.90;;;;;;4916456;29;38674;-79
2023/02/27 06:04:57;;;;;;;9.10;2.73;;;0.00;99.90;;;;;;4942638;28;36926;-79
2023/02/27 06:07:23;;;;;;;9.60;2.60;;;-0.10;99.90;;;;;;4937406;28;39247;-80
2023/02/27 06:09:50;;;;;;;10.50;2.73;;;-0.10;99.90;;;;;;4943906;28;39828;-79
2023/02/27 06:12:16;;;;;;;9.43;3.40;;;-0.10;99.90;;;;;;4942738;28;38309;-80
2023/02/27 06:14:42;;;;;;;10.07;3.13;;;-0.10;99.90;;;;;;4918985;28;35945;-79
2023/02/27 06:17:08;;;;;;;11.50;3.63;;;-0.20;99.90;;;;;;4936818;28;38834;-78
2023/02/27 06:19:34;;;;;;;12.37;3.83;;;-0.20;99.90;;;;;;4951271;28;38510;-79
2023/02/27 06:22:01;;;;;;;10.90;4.30;;;-0.30;99.90;;;;;;4915829;29;37851;-79
2023/02/27 06:24:27;;;;;;;10.30;3.93;;;-0.30;99.90;;;;;;4938199;28;47542;-80
2023/02/27 06:26:53;;;;;;;13.17;4.53;;;-0.30;99.90;;;;;;4919257;29;39503;-78
2023/02/27 06:29:19;;;;;;;11.73;5.03;;;-0.20;99.90;;;;;;4942351;28;39566;-78
2023/02/27 06:31:47;;;;;;;10.70;4.27;;;-0.20;99.90;;;;;;4924750;28;36837;-79
2023/02/27 06:34:13;;;;;;;13.77;4.43;;;-0.10;99.90;;;;;;4929042;28;36725;-79
2023/02/27 06:36:39;;;;;;;8.90;4.23;;;-0.10;99.90;;;;;;4949229;28;38279;-79
2023/02/27 06:39:05;;;;;;;15.73;4.23;;;-0.10;99.90;;;;;;4942164;28;39470;-79
2023/02/27 06:41:31;;;;;;;10.37;3.40;;;0.00;99.90;;;;;;4942005;28;38690;-79
2023/02/27 06:43:58;;;;;;;16.37;3.67;;;0.00;99.90;;;;;;4921073;28;20068;-79
2023/02/27 06:46:25;;;;;;;8.07;3.47;;;0.10;99.90;;;;;;4938948;28;38888;-79
2023/02/27 06:48:51;;;;;;;11.83;4.53;;;0.10;99.90;;;;;;4943218;28;38233;-80
2023/02/27 06:51:17;;;;;;;10.40;3.50;;;0.10;99.90;;;;;;4936619;28;37472;-79
2023/02/27 06:53:43;;;;;;;5.73;3.37;;;0.20;99.90;;;;;;4939576;28;36644;-79
2023/02/27 06:56:09;;;;;;;8.87;3.10;;;0.20;99.90;;;;;;4945629;28;38473;-79
2023/02/27 06:58:35;;;;;;;10.73;3.50;;;0.30;99.90;;;;;;4919946;28;38235;-79
2023/02/27 07:01:01;;;;;;;13.37;3.57;;;0.30;99.90;;;;;;4937774;28;37573;-79
2023/02/27 07:03:28;;;;;;;8.13;3.10;;;0.30;99.90;;;;;;4917745;29;36030;-78
2023/02/27 07:05:55;;;;;;;5.57;3.03;;;0.40;99.90;;;;;;4913038;29;39574;-79
2023/02/27 07:08:21;;;;;;;10.73;3.50;;;0.40;99.90;;;;;;4913481;29;39338;-79
2023/02/27 07:10:47;;;;;;;8.73;3.10;;;0.40;99.90;;;;;;4913321;29;39212;-79
2023/02/27 07:13:14;;;;;;;10.27;3.30;;;0.40;99.90;;;;;;4913766;29;38117;-79
2023/02/27 07:15:40;;;;;;;11.40;3.40;;;0.50;99.90;;;;;;4910409;29;38992;-79
2023/02/27 07:18:06;;;;;;;10.37;3.73;;;0.60;99.90;;;;;;4898515;29;37623;-79
2023/02/27 07:20:32;;;;;;;10.70;3.63;;;0.60;99.90;;;;;;4912191;29;38199;-79
2023/02/27 07:22:59;;;;;;;12.13;3.70;;;0.70;99.90;;;;;;4913627;29;36094;-79
2023/02/27 07:25:25;;;;;;;10.97;3.60;;;0.80;99.90;;;;;;4910444;29;38991;-79
2023/02/27 07:27:51;;;;;;;8.17;2.97;;;1.00;99.90;;;;;;4913615;29;38145;-79
2023/02/27 07:30:18;;;;;;;8.23;3.43;;;1.20;99.90;;;;;;4912034;29;37600;-79
2023/02/27 07:32:44;;;;;;;7.90;3.00;;;1.50;99.90;;;;;;4912562;29;38090;-80
2023/02/27 07:35:11;;;;;;;8.53;3.33;;;1.70;99.90;;;;;;4909557;29;37651;-79
2023/02/27 07:37:38;;;;;;;9.70;3.63;;;1.80;99.90;;;;;;4897815;29;38953;-79
2023/02/27 07:40:06;;;;;;;8.93;2.53;;;1.80;99.90;;;;;;4897824;29;36919;-79
2023/02/27 07:42:32;;;;;;;12.73;3.47;;;1.90;99.90;;;;;;4914843;29;48279;-79
2023/02/27 07:44:59;;;;;;;11.77;3.27;;;2.00;99.90;;;;;;4897161;29;37759;-79
2023/02/27 07:47:25;;;;;;;12.90;3.57;;;2.00;99.90;;;;;;4899149;29;38711;-80
2023/02/27 07:49:51;;;;;;;12.63;3.50;;;2.00;99.90;;;;;;4898326;29;37039;-79
2023/02/27 07:52:17;;;;;;;5.93;3.20;;;2.00;99.90;;;;;;4913239;29;36597;-79
2023/02/27 07:54:43;;;;;;;7.63;2.50;;;2.00;99.90;;;;;;4897054;29;37543;-79
2023/02/27 07:57:10;;;;;;;5.40;2.07;;;2.20;99.90;;;;;;4913432;29;38588;-79
2023/02/27 07:59:36;;;;;;;10.40;2.33;;;2.20;99.90;;;;;;4916279;29;38949;-79
2023/02/27 08:02:02;;;;;;;6.13;2.07;;;2.40;99.90;;;;;;4919524;29;37971;-79
2023/02/27 08:04:28;;;;;;;7.47;1.80;;;2.50;99.90;;;;;;4907202;29;38150;-79
2023/02/27 08:06:54;;;;;;;5.70;2.03;;;2.50;99.90;;;;;;4901867;29;39056;-79
2023/02/27 08:09:20;;;;;;;5.13;2.00;;;2.50;99.90;;;;;;4917981;29;38333;-80
2023/02/27 08:11:46;;;;;;;9.43;2.13;;;2.60;99.90;;;;;;4915960;29;37674;-79
2023/02/27 08:14:12;;;;;;;9.93;2.07;;;2.60;99.90;;;;;;4918276;29;38584;-79
2023/02/27 08:16:38;;;;;;;8.67;1.87;;;2.70;99.90;;;;;;4904601;29;38803;-80
2023/02/27 08:19:05;;;;;;;4.90;1.60;;;2.80;99.90;;;;;;4918729;29;37650;-78
2023/02/27 08:21:31;;;;;;;9.37;3.10;;;2.90;99.90;;;;;;4917188;29;36048;-79
2023/02/27 08:23:57;;;;;;;7.50;1.57;;;2.90;99.90;;;;;;4912538;29;37210;-79
2023/02/27 08:26:23;;;;;;;5.13;1.73;;;3.00;99.90;;;;;;4903364;29;36898;-79
2023/02/27 08:28:50;;;;;;;6.70;1.30;;;3.00;99.90;;;;;;4918669;29;39074;-79
2023/02/27 08:31:16;;;;;;;5.70;1.80;;;3.10;99.90;;;;;;4917532;29;37172;-79
2023/02/27 08:33:42;;;;;;;8.07;1.33;;;3.20;99.90;;;;;;4919837;29;38509;-79
2023/02/27 08:36:08;;;;;;;8.87;1.87;;;3.30;99.90;;;;;;4921589;29;38617;-79
2023/02/27 08:38:34;;;;;;;5.57;1.80;;;3.30;99.90;;;;;;4921575;29;38446;-79
2023/02/27 08:41:02;;;;;;;5.57;1.30;;;3.30;99.90;;;;;;4916646;29;37181;-79
2023/02/27 08:43:28;;;;;;;4.33;1.20;;;3.40;99.90;;;;;;4916905;29;48130;-80
2023/02/27 08:45:54;;;;;;;3.97;1.33;;;3.50;99.90;;;;;;4897059;29;37356;-79
2023/02/27 08:48:20;;;;;;;4.70;1.93;;;3.60;99.90;;;;;;4902243;29;38385;-79
2023/02/27 08:50:46;;;;;;;8.00;1.20;;;3.70;99.90;;;;;;4916795;29;37037;-79
2023/02/27 08:53:13;;;;;;;8.77;1.20;;;3.80;99.90;;;;;;4916429;29;38785;-79
2023/02/27 08:55:39;;;;;;;7.80;1.40;;;3.80;99.90;;;;;;4899379;29;37241;-80
2023/02/27 08:58:05;;;;;;;7.77;1.43;;;3.90;99.90;;;;;;4910149;29;37824;-79
2023/02/27 09:00:31;;;;;;;7.70;1.70;;;3.80;99.90;;;;;;4917214;29;37055;-80
2023/02/27 09:02:58;;;;;;;6.53;2.00;;;3.80;99.90;;;;;;4906811;29;38660;-79
2023/02/27 09:05:24;;;;;;;5.80;1.70;;;3.90;99.90;;;;;;4915614;29;38616;-79
2023/02/27 09:07:50;;;;;;;4.37;1.50;;;4.00;99.90;;;;;;4915560;29;38108;-79
2023/02/27 09:10:17;;;;;;;8.60;1.60;;;4.00;99.90;;;;;;4898765;29;35880;-79
2023/02/27 09:12:43;;;;;;;6.73;1.93;;;4.00;99.90;;;;;;4899720;29;37372;-79
2023/02/27 09:15:10;;;;;;;4.43;1.43;;;4.00;99.90;;;;;;4911978;29;38824;-79
2023/02/27 09:17:36;;;;;;;4.53;1.60;;;4.00;99.90;;;;;;4919705;29;38277;-79
2023/02/27 09:20:04;;;;;;;5.67;1.60;;;4.00;99.90;;;;;;4916548;29;37507;-79
2023/02/27 09:22:30;;;;;;;8.90;1.60;;;4.00;99.90;;;;;;4915334;29;38980;-80
2023/02/27 09:24:56;;;;;;;6.83;1.40;;;4.20;99.90;;;;;;4898491;29;38469;-77
2023/02/27 09:27:22;;;;;;;7.73;1.57;;;4.30;99.90;;;;;;4904496;29;37991;-77
2023/02/27 09:29:54;;;;;;;6.00;1.40;;;4.30;99.90;;;;;;4903724;29;36101;-79
2023/02/27 09:32:24;;;;;;;7.00;1.70;;;4.30;99.90;;;;;;4913020;29;38828;-78
2023/02/27 09:34:50;;;;;;;5.97;1.63;;;4.30;99.90;;;;;;4915993;29;39243;-78
2023/02/27 09:37:18;;;;;;;3.90;1.40;;;4.40;99.90;;;;;;4903007;29;37139;-77
2023/02/27 09:39:44;;;;;;;10.33;1.63;;;4.40;99.90;;;;;;4916090;29;36873;-77
2023/02/27 09:42:22;;;;;;;5.90;1.83;;;4.40;99.90;;;;;;4900247;29;37415;-78
2023/02/27 09:44:52;;;;;;;5.97;1.43;;;4.40;99.90;;;;;;4912466;29;37171;-78
2023/02/27 09:47:43;;;;;;;7.67;1.37;;;4.50;99.90;;;;;;4914172;29;37798;-78
2023/02/27 09:50:36;;;;;;;6.57;1.40;;;4.50;99.90;;;;;;4914114;29;38420;-78
2023/02/27 09:53:04;;;;;;;7.50;1.50;;;4.60;99.90;;;;;;4905021;29;37747;-77
2023/02/27 09:55:36;;;;;;;5.93;1.30;;;4.60;99.90;;;;;;4915162;29;38730;-78
2023/02/27 09:58:24;;;;;;;4.87;1.30;;;4.70;99.90;;;;;;4898083;29;38378;-77
2023/02/27 10:01:07;;;;;;;5.33;1.00;;;4.90;99.90;;;;;;4902342;29;36053;-78
2023/02/27 10:03:51;;;;;;;5.43;1.15;;;5.00;99.90;;;;;;4909913;28;49262;-78
2023/02/27 10:06:23;;;;;;;6.90;1.30;;;5.10;99.90;;;;;;4931902;28;37957;-78
2023/02/27 10:09:25;;;;;;;7.88;1.05;;;5.20;99.90;;;;;;4954657;28;37689;-78
2023/02/27 10:11:58;;;;;;;5.47;1.33;;;5.30;99.90;;;;;;4943388;28;48989;-79
2023/02/27 10:14:32;;;;;;;4.87;1.00;;;5.60;99.90;;;;;;4941796;28;40046;-78
2023/02/27 10:17:02;;;;;;;3.80;1.07;;;5.70;99.90;;;;;;4940600;28;38259;-78
2023/02/27 10:19:33;;;;;;;9.27;1.93;;;5.80;99.90;;;;;;4929652;28;47316;-78
2023/02/27 10:22:03;;;;;;;5.27;1.47;;;5.80;99.90;;;;;;4943422;28;37034;-78
2023/02/27 10:24:37;;;;;;;4.60;1.10;;;5.80;99.90;;;;;;4948750;28;47484;-79
2023/02/27 10:27:07;;;;;;;6.93;1.27;;;6.00;99.90;;;;;;4936681;28;39750;-78
2023/02/27 10:29:35;;;;;;;6.97;1.20;;;6.10;99.90;;;;;;4942957;28;37151;-78
2023/02/27 10:32:21;;;;;;;5.97;1.70;;;6.00;99.90;;;;;;4924917;28;37372;-76
2023/02/27 10:34:53;;;;;;;5.27;1.00;;;6.00;99.90;;;;;;4941152;28;39450;-79
2023/02/27 10:37:22;;;;;;;4.90;1.30;;;5.90;99.90;;;;;;4934264;28;39090;-78
2023/02/27 10:39:56;;;;;;;8.80;1.47;;;5.90;99.90;;;;;;4926136;28;38029;-78
2023/02/27 10:42:27;;;;;;;4.83;0.70;;;5.80;99.90;;;;;;4938671;28;38050;-78
2023/02/27 10:44:54;;;;;;;3.63;0.90;;;5.90;99.90;;;;;;4940640;28;39048;-78
2023/02/27 10:47:23;;;;;;;6.80;1.13;;;6.00;99.90;;;;;;4937868;28;38346;-78
2023/02/27 10:49:51;;;;;;;4.60;0.90;;;6.10;99.90;;;;;;4947874;28;38068;-78
2023/02/27 10:52:18;;;;;;;3.33;1.03;;;6.20;99.90;;;;;;4934058;28;39097;-78
2023/02/27 10:54:45;;;;;;;3.33;0.90;;;6.40;99.90;;;;;;4910113;28;37867;-78
2023/02/27 10:57:27;;;;;;;5.33;1.03;;;6.50;99.90;;;;;;4931022;28;37314;-78
2023/02/27 10:59:55;;;;;;;7.17;1.10;;;6.50;99.90;;;;;;4936914;28;37835;-77
2023/02/27 11:02:27;;;;;;;3.07;1.00;;;6.50;99.90;;;;;;4943014;28;37443;-78
2023/02/27 11:04:58;;;;;;;3.97;1.00;;;6.60;99.90;;;;;;4913855;29;37418;-78
2023/02/27 11:07:30;;;;;;;5.27;1.20;;;6.70;99.90;;;;;;4913649;29;37784;-78
2023/02/27 11:10:10;;;;;;;4.07;1.05;;;6.50;99.90;;;;;;4906137;29;38879;-78
2023/02/27 11:12:39;;;;;;;6.43;1.30;;;6.50;99.90;;;;;;4915134;29;49128;-78
2023/02/27 11:15:14;;;;;;;4.83;1.10;;;6.70;99.90;;;;;;4914137;29;37436;-78
2023/02/27 11:17:42;;;;;;;6.73;1.10;;;6.70;99.90;;;;;;4914726;28;49233;-78
2023/02/27 11:20:31;;;;;;;10.97;2.13;;;6.60;99.90;;;;;;4914911;29;39001;-78
2023/02/27 11:23:09;;;;;;;4.67;0.87;;;6.50;99.90;;;;;;4914151;29;36206;-78
2023/02/27 11:25:35;;;;;;;5.87;1.90;;;6.60;99.90;;;;;;4922084;28;47280;-77
2023/02/27 11:28:21;;;;;;;7.17;1.60;;;6.70;99.90;;;;;;4897537;28;38469;-80
2023/02/27 11:31:13;;;;;;;4.57;1.20;;;6.70;99.90;;;;;;4925484;28;39452;-83
2023/02/27 11:34:03;;;;;;;2.60;1.00;;;6.70;99.90;;;;;;4928977;29;48626;-81
2023/02/27 11:36:47;;;;;;;3.20;0.73;;;6.90;99.90;;;;;;4908990;29;49016;-80
2023/02/27 11:39:46;;;;;;;2.73;1.10;;;7.20;99.90;;;;;;4913879;29;38350;-82
2023/02/27 11:42:33;;;;;;;9.70;1.10;;;7.40;99.90;;;;;;4917604;29;37952;-81
2023/02/27 11:45:05;;;;;;;5.77;1.10;;;7.50;99.90;;;;;;4918599;29;36664;-81
2023/02/27 11:47:33;;;;;;;6.28;1.75;;;7.60;99.90;;;;;;4913674;29;46841;-80
2023/02/27 11:50:23;;;;;;;2.87;0.70;;;7.70;99.90;;;;;;4934187;28;37125;-79
2023/02/27 11:53:02;;;;;;;2.53;0.97;;;7.60;99.90;;;;;;4920469;28;47092;-82
2023/02/27 11:55:29;;;;;;;3.57;1.00;;;7.30;99.90;;;;;;4911731;29;47032;-82
2023/02/27 11:58:01;;;;;;;3.07;1.13;;;7.40;99.90;;;;;;4907571;29;38294;-81
2023/02/27 12:00:35;;;;;;;5.20;0.90;;;7.50;99.90;;;;;;4918006;29;47502;-81
2023/02/27 12:03:22;;;;;;;5.40;1.17;;;7.70;99.90;;;;;;4910192;29;38027;-80
2023/02/27 12:05:52;;;;;;;4.60;1.17;;;7.80;99.90;;;;;;4913268;28;49279;-82
2023/02/27 12:08:24;;;;;;;3.87;1.07;;;7.90;99.90;;;;;;4918755;29;37721;-82
2023/02/27 12:11:09;;;;;;;2.73;0.90;;;8.10;99.90;;;;;;4924905;29;38755;-82
2023/02/27 12:13:39;;;;;;;2.30;0.90;;;8.40;99.90;;;;;;4925979;29;48800;-81
2023/02/27 12:16:37;;;;;;;9.00;1.10;;;8.60;99.90;;;;;;4911054;29;36428;-81
2023/02/27 12:19:28;;;;;;;4.63;1.50;;;8.80;99.90;;;;;;4909957;29;39061;-79
2023/02/27 12:22:21;;;;;;;5.13;1.10;;;8.90;99.90;;;;;;4910236;29;38201;-81
2023/02/27 12:24:52;;;;;;;4.72;1.08;;;8.60;99.90;;;;;;4919351;29;49211;-82
2023/02/27 12:27:24;;;;;;;6.83;1.53;;;8.60;99.90;;;;;;4918784;29;37163;-80
2023/02/27 12:29:57;;;;;;;3.08;1.08;;;9.10;99.90;;;;;;4914581;29;38628;-80
2023/02/27 12:32:43;;;;;;;7.63;1.40;;;8.80;99.90;;;;;;4903698;29;36967;-80
2023/02/27 12:35:31;;;;;;;3.83;1.10;;;8.60;99.90;;;;;;4902359;29;37057;-80
2023/02/27 12:37:59;;;;;;;4.63;1.10;;;8.40;99.90;;;;;;4919859;29;37023;-80
2023/02/27 12:40:56;;;;;;;4.73;1.10;;;8.10;99.90;;;;;;4912453;29;38764;-80
2023/02/27 12:43:25;;;;;;;4.43;1.40;;;8.00;99.90;;;;;;4893497;29;37370;-80
2023/02/27 12:46:00;;;;;;;6.00;1.77;;;7.60;99.90;;;;;;4908180;29;36663;-80
2023/02/27 12:48:48;;;;;;;1.57;0.83;;;7.50;99.90;;;;;;4930806;29;47896;-82
2023/02/27 12:51:42;;;;;;;4.77;1.00;;;7.70;99.90;;;;;;4921067;29;39405;-81
2023/02/27 12:54:37;;;;;;;3.50;1.13;;;7.50;99.90;;;;;;4916811;29;37212;-80
2023/02/27 12:57:30;;;;;;;5.57;1.27;;;7.40;99.90;;;;;;4917449;29;37885;-79
2023/02/27 13:00:08;;;;;;;3.10;1.47;;;7.30;99.90;;;;;;4915893;29;38208;-81
2023/02/27 13:02:58;;;;;;;10.33;1.37;;;7.10;99.90;;;;;;4906896;29;39117;-81
2023/02/27 13:06:09;;;;;;;2.13;0.80;;;7.00;99.90;;;;;;4910305;28;37593;-81
2023/02/27 13:08:42;;;;;;;2.77;1.10;;;7.60;99.90;;;;;;4906896;29;47849;-80
2023/02/27 13:11:23;;;;;;;;;;;8.00;99.90;;;;;;4917725;28;36992;-80
2023/02/27 13:13:58;;;;;;;4.80;1.13;;;8.70;99.90;;;;;;4923429;28;38211;-80
2023/02/27 13:16:54;;;;;;;3.70;0.80;;;8.90;99.90;;;;;;4915602;28;37123;-80
2023/02/27 13:19:40;;;;;;;3.93;0.70;;;8.40;99.90;;;;;;4907863;28;37463;-80
2023/02/27 13:22:29;;;;;;;2.70;0.70;;;7.90;99.90;;;;;;4928970;28;36095;-80
2023/02/27 13:25:00;;;;;;;2.70;0.70;;;7.40;99.90;;;;;;4928591;28;39136;-80
2023/02/27 13:27:33;;;;;;;3.23;0.90;;;7.20;99.90;;;;;;4928298;28;37034;-81
2023/02/27 13:29:59;;;;;;;4.80;1.00;;;7.00;99.90;;;;;;4925101;28;36763;-82
2023/02/27 13:32:39;;;;;;;2.03;0.70;;;6.80;99.90;;;;;;4932344;28;35754;-81